Time;durP1;ratioP1;P1;durP2;ratioP2;P2;SDS_P1;SDS_P2;PMS_P1;PMS_P2;Temp;Humidity;BMP_temperature;BMP_pressure;BME280_temperature;BME280_humidity;BME280_pressure;Samples;Min_cycle;Max_cycle;Signal;HPM_P1;HPM_P2
2022/02/03 00:00:20;;;;;;;7.47;2.97;;;1.20;99.90;;;;;;5130579;27;20826;-66
2022/02/03 00:02:59;;;;;;;3.40;2.33;;;1.20;99.90;;;;;;5118959;27;20199;-66
2022/02/03 00:05:46;;;;;;;4.67;2.77;;;1.20;99.90;;;;;;5135909;27;20198;-66
2022/02/03 00:08:24;;;;;;;4.40;2.77;;;1.20;99.90;;;;;;5125783;28;20231;-68
2022/02/03 00:17:02;;;;;;;2.47;2.03;;;1.10;99.90;;;;;;5063560;28;20205;-68
2022/02/03 00:22:34;;;;;;;4.03;2.20;;;1.00;99.90;;;;;;5106735;27;20214;-65
2022/02/03 00:25:09;;;;;;;2.87;2.20;;;1.10;99.90;;;;;;5130064;27;20337;-66
2022/02/03 00:27:51;;;;;;;5.40;3.10;;;1.00;99.90;;;;;;5134854;27;20199;-67
2022/02/03 00:30:21;;;;;;;2.73;2.20;;;0.90;99.90;;;;;;5135174;27;20252;-68
2022/02/03 00:33:16;;;;;;;4.77;2.53;;;0.90;99.90;;;;;;5133082;27;20210;-65
2022/02/03 00:36:09;;;;;;;3.17;2.50;;;0.90;99.90;;;;;;5136270;27;20203;-66
2022/02/03 00:49:53;;;;;;;4.13;2.50;;;0.80;99.90;;;;;;5128848;27;20201;-67
2022/02/03 00:52:21;;;;;;;3.23;2.43;;;0.80;99.90;;;;;;5134657;27;20660;-68
2022/02/03 00:54:48;;;;;;;4.07;2.50;;;0.80;99.90;;;;;;5136663;27;20218;-66
2022/02/03 00:57:20;;;;;;;3.20;2.50;;;0.80;99.90;;;;;;5123595;27;20232;-68
2022/02/03 00:59:56;;;;;;;5.07;2.50;;;0.80;99.90;;;;;;5132850;27;20563;-65
2022/02/03 01:02:26;;;;;;;3.90;1.97;;;0.90;99.90;;;;;;5131045;27;20202;-67
2022/02/03 01:04:54;;;;;;;4.90;2.10;;;0.90;99.90;;;;;;5149175;27;20211;-66
2022/02/03 01:07:22;;;;;;;4.57;2.60;;;0.90;99.90;;;;;;5135918;27;20298;-66
2022/02/03 01:10:02;;;;;;;4.13;2.30;;;0.90;99.90;;;;;;5123473;27;20696;-67
2022/02/03 01:12:36;;;;;;;3.57;2.33;;;0.90;99.90;;;;;;5137633;27;20195;-66
2022/02/03 01:15:15;;;;;;;5.27;2.70;;;0.90;99.90;;;;;;5133106;27;20275;-66
2022/02/03 01:17:50;;;;;;;3.47;2.60;;;0.90;99.90;;;;;;5134854;27;20222;-67
2022/02/03 01:34:27;;;;;;;5.70;3.20;;;0.90;99.90;;;;;;5133833;27;20193;-67
2022/02/03 01:45:22;;;;;;;4.00;2.60;;;1.00;99.90;;;;;;5129113;27;20202;-66
2022/02/03 01:48:07;;;;;;;5.87;3.50;;;1.00;99.90;;;;;;5116869;27;20678;-66
2022/02/03 01:53:23;;;;;;;5.57;3.07;;;1.10;99.90;;;;;;5138444;27;20198;-67
2022/02/03 01:56:04;;;;;;;3.10;2.70;;;1.10;99.90;;;;;;5127924;27;20195;-67
2022/02/03 01:58:39;;;;;;;4.80;3.03;;;1.10;99.90;;;;;;5120897;27;20211;-67
2022/02/03 02:01:06;;;;;;;5.97;3.30;;;1.10;99.90;;;;;;5122395;27;20573;-68
2022/02/03 02:03:40;;;;;;;6.10;3.27;;;1.20;99.90;;;;;;5136837;27;20675;-66
2022/02/03 02:06:46;;;;;;;5.77;3.37;;;1.20;99.90;;;;;;5117707;27;20239;-67
2022/02/03 02:09:24;;;;;;;6.70;3.37;;;1.20;99.90;;;;;;5125079;27;20199;-67
2022/02/03 02:12:07;;;;;;;6.03;2.77;;;1.20;99.90;;;;;;5115835;27;20199;-67
2022/02/03 02:18:12;;;;;;;5.03;3.23;;;1.30;99.90;;;;;;5117674;27;20229;-67
2022/02/03 02:37:53;;;;;;;6.93;3.67;;;1.40;99.90;;;;;;5120750;27;20564;-67
2022/02/03 02:43:23;;;;;;;7.33;3.73;;;1.40;99.90;;;;;;5128642;27;20272;-67
2022/02/03 02:45:54;;;;;;;6.00;3.33;;;1.40;99.90;;;;;;5122361;27;20191;-67
2022/02/03 02:49:08;;;;;;;5.60;3.40;;;1.40;99.90;;;;;;5122103;27;20199;-67
2022/02/03 02:51:44;;;;;;;5.30;3.20;;;1.40;99.90;;;;;;5130806;27;20211;-66
2022/02/03 02:54:31;;;;;;;5.47;3.57;;;1.40;99.90;;;;;;5129914;27;20201;-67
2022/02/03 02:57:18;;;;;;;6.33;4.13;;;1.40;99.90;;;;;;5127882;27;20263;-67
2022/02/03 03:00:22;;;;;;;8.30;3.80;;;1.40;99.90;;;;;;5122591;27;20226;-66
2022/02/03 03:03:23;;;;;;;5.83;3.73;;;1.50;99.90;;;;;;5124101;27;20230;-67
2022/02/03 03:30:51;;;;;;;7.67;4.00;;;1.30;99.90;;;;;;5139827;27;20220;-67
2022/02/03 03:33:27;;;;;;;6.33;3.50;;;1.30;99.90;;;;;;5126745;27;20545;-68
2022/02/03 03:35:57;;;;;;;6.67;3.97;;;1.40;99.90;;;;;;5122069;27;20228;-67
2022/02/03 03:38:26;;;;;;;7.47;3.77;;;1.40;99.90;;;;;;5125365;28;20212;-67
2022/02/03 03:40:55;;;;;;;7.63;4.37;;;1.40;99.90;;;;;;5113460;28;20260;-67
2022/02/03 03:43:30;;;;;;;6.00;4.27;;;1.40;99.90;;;;;;5125103;28;20253;-67
2022/02/03 03:46:02;;;;;;;7.53;4.20;;;1.40;99.90;;;;;;5124791;28;20198;-67
2022/02/03 03:48:40;;;;;;;7.47;4.37;;;1.40;99.90;;;;;;5121514;28;20217;-67
2022/02/03 03:51:11;;;;;;;8.13;4.17;;;1.40;99.90;;;;;;5135623;27;20205;-66
2022/02/03 03:53:50;;;;;;;6.80;3.67;;;1.40;99.90;;;;;;5134258;27;20227;-66
2022/02/03 03:56:28;;;;;;;7.67;4.20;;;1.40;99.90;;;;;;5135007;27;20234;-66
2022/02/03 03:59:21;;;;;;;7.27;4.63;;;1.40;99.90;;;;;;5135282;27;20672;-66
2022/02/03 04:39:33;;;;;;;7.13;4.83;;;1.50;99.90;;;;;;5134913;27;20215;-67
2022/02/03 04:51:30;;;;;;;9.50;5.60;;;1.50;99.90;;;;;;5142291;27;20244;-67
2022/02/03 04:54:55;;;;;;;8.63;5.37;;;1.40;99.90;;;;;;5134082;27;20237;-66
2022/02/03 04:57:59;;;;;;;9.60;6.13;;;1.50;99.90;;;;;;5126854;27;20243;-67
2022/02/03 05:00:58;;;;;;;7.60;5.60;;;1.50;99.90;;;;;;5127249;27;20200;-68
2022/02/03 05:03:50;;;;;;;7.87;5.83;;;1.50;99.90;;;;;;5133594;27;20293;-66
2022/02/03 05:06:40;;;;;;;10.17;6.53;;;1.50;99.90;;;;;;5126842;27;20207;-66
2022/02/03 05:09:26;;;;;;;7.93;5.77;;;1.50;99.90;;;;;;5135615;27;20204;-67
2022/02/03 05:12:29;;;;;;;7.70;5.83;;;1.50;99.90;;;;;;5118046;27;20191;-67
2022/02/03 05:21:48;;;;;;;9.00;6.20;;;1.50;99.90;;;;;;5138436;27;20194;-66
2022/02/03 05:42:50;;;;;;;9.40;6.17;;;1.60;99.90;;;;;;5107424;27;20639;-66
2022/02/03 05:45:57;;;;;;;9.63;6.07;;;1.60;99.90;;;;;;5123658;27;20209;-65
2022/02/03 05:54:46;;;;;;;8.97;5.77;;;1.50;99.90;;;;;;5080343;28;20201;-66
2022/02/03 06:05:49;;;;;;;9.57;6.33;;;1.50;99.90;;;;;;5129385;27;20678;-66
2022/02/03 06:08:22;;;;;;;10.57;6.53;;;1.50;99.90;;;;;;5119836;27;20590;-67
2022/02/03 06:13:42;;;;;;;9.47;6.87;;;1.60;99.90;;;;;;5131268;27;20197;-66
2022/02/03 06:16:32;;;;;;;9.50;6.43;;;1.60;99.90;;;;;;5119050;27;20203;-67
2022/02/03 06:21:52;;;;;;;8.97;6.40;;;1.60;99.90;;;;;;5135292;27;20198;-67
2022/02/03 06:24:31;;;;;;;11.77;7.33;;;1.60;99.90;;;;;;5128194;27;20202;-66
2022/02/03 06:29:49;;;;;;;8.00;6.30;;;1.60;99.90;;;;;;5139180;27;20214;-68
2022/02/03 06:32:16;;;;;;;8.70;6.53;;;1.60;99.90;;;;;;5140486;27;20242;-68
2022/02/03 06:34:44;;;;;;;9.87;7.20;;;1.60;99.90;;;;;;5130983;27;20652;-67
2022/02/03 06:37:11;;;;;;;9.87;6.80;;;1.60;99.90;;;;;;5131697;27;20207;-68
2022/02/03 06:39:38;;;;;;;10.00;6.90;;;1.60;99.90;;;;;;5124972;27;20224;-69
2022/02/03 06:42:06;;;;;;;11.70;7.87;;;1.60;99.90;;;;;;5132240;27;20719;-67
2022/02/03 06:44:38;;;;;;;9.80;6.77;;;1.60;99.90;;;;;;5134876;27;20230;-67
2022/02/03 06:47:11;;;;;;;14.47;8.20;;;1.60;99.90;;;;;;5136698;27;20543;-67
2022/02/03 06:49:48;;;;;;;15.60;8.30;;;1.60;99.90;;;;;;5130539;27;20195;-67
2022/02/03 06:52:21;;;;;;;11.17;8.20;;;1.60;99.90;;;;;;5132769;27;20290;-68
2022/02/03 06:55:01;;;;;;;14.23;8.00;;;1.60;99.90;;;;;;5131478;27;20203;-69
2022/02/03 06:57:33;;;;;;;14.60;7.73;;;1.60;99.90;;;;;;5132274;27;20249;-66
2022/02/03 07:00:04;;;;;;;17.30;8.63;;;1.70;99.90;;;;;;5134998;27;20735;-68
2022/02/03 07:02:37;;;;;;;11.37;7.93;;;1.60;99.90;;;;;;5136337;27;20200;-72
2022/02/03 07:05:04;;;;;;;12.60;7.87;;;1.60;99.90;;;;;;5133326;27;20250;-67
2022/02/03 07:07:32;;;;;;;12.30;7.60;;;1.60;99.90;;;;;;5130119;27;20314;-70
2022/02/03 07:10:01;;;;;;;12.30;8.13;;;1.70;99.90;;;;;;5127990;27;20650;-69
2022/02/03 07:12:28;;;;;;;13.57;7.90;;;1.70;99.90;;;;;;5109929;27;20227;-70
2022/02/03 07:14:55;;;;;;;15.80;8.03;;;1.80;99.90;;;;;;5133909;27;20260;-71
2022/02/03 07:17:22;;;;;;;13.43;8.83;;;1.70;99.90;;;;;;5132583;27;20203;-71
2022/02/03 07:19:50;;;;;;;13.53;8.63;;;1.80;99.90;;;;;;5133731;27;20270;-71
2022/02/03 07:22:17;;;;;;;13.30;9.17;;;1.80;99.90;;;;;;5132068;27;20215;-70
2022/02/03 07:24:46;;;;;;;12.80;8.20;;;1.80;99.90;;;;;;5135207;27;20322;-69
2022/02/03 07:27:13;;;;;;;14.13;9.43;;;1.80;99.90;;;;;;5132079;27;20199;-69
2022/02/03 07:29:39;;;;;;;15.67;8.93;;;1.80;99.90;;;;;;5136561;27;20212;-71
2022/02/03 07:32:08;;;;;;;15.33;8.60;;;1.90;99.90;;;;;;5133502;27;20205;-69
2022/02/03 07:34:34;;;;;;;12.03;8.07;;;1.90;99.90;;;;;;5134924;27;20294;-72
2022/02/03 07:37:01;;;;;;;11.03;7.33;;;2.00;99.90;;;;;;5131851;27;20262;-71
2022/02/03 07:39:28;;;;;;;12.87;7.57;;;2.00;99.90;;;;;;5134738;27;20215;-72
2022/02/03 07:41:57;;;;;;;13.77;7.83;;;2.00;99.90;;;;;;5139033;27;20286;-70
2022/02/03 07:44:24;;;;;;;10.87;7.63;;;1.90;99.90;;;;;;5120582;28;20626;-68
2022/02/03 07:46:51;;;;;;;11.03;6.70;;;1.90;99.90;;;;;;5129823;27;20207;-70
2022/02/03 07:49:18;;;;;;;11.03;6.60;;;1.90;99.90;;;;;;5134144;27;20258;-70
2022/02/03 07:51:45;;;;;;;11.07;7.87;;;1.90;99.90;;;;;;5114618;28;20310;-69
2022/02/03 07:54:12;;;;;;;10.80;6.80;;;1.90;99.90;;;;;;5121075;28;20208;-69
2022/02/03 07:56:39;;;;;;;9.77;6.27;;;1.90;99.90;;;;;;5131646;28;20283;-69
2022/02/03 07:59:07;;;;;;;11.03;7.23;;;2.00;99.90;;;;;;5130032;28;20306;-70
2022/02/03 08:01:34;;;;;;;7.97;5.83;;;2.10;99.90;;;;;;5132715;27;20211;-70
2022/02/03 08:04:05;;;;;;;10.93;6.97;;;2.00;99.90;;;;;;5142715;27;20709;-70
2022/02/03 08:06:36;;;;;;;9.63;6.13;;;2.10;99.90;;;;;;5132303;28;20646;-69
2022/02/03 08:09:07;;;;;;;8.73;6.17;;;2.20;99.90;;;;;;5133444;27;20219;-71
2022/02/03 08:11:38;;;;;;;14.60;7.07;;;2.40;99.90;;;;;;5134180;27;20206;-69
2022/02/03 08:14:11;;;;;;;8.83;5.83;;;2.40;99.90;;;;;;5132260;27;20245;-71
2022/02/03 08:16:41;;;;;;;9.13;6.20;;;2.50;99.90;;;;;;5123032;28;20628;-69
2022/02/03 08:19:13;;;;;;;10.27;7.00;;;2.50;99.90;;;;;;5132823;27;20237;-69
2022/02/03 08:21:45;;;;;;;13.47;5.87;;;2.70;99.90;;;;;;5130999;28;20203;-69
2022/02/03 08:24:21;;;;;;;8.27;5.73;;;2.90;99.90;;;;;;5128113;27;20199;-71
2022/02/03 08:27:05;;;;;;;8.70;5.90;;;3.00;99.90;;;;;;5142195;27;20211;-71
2022/02/03 08:30:04;;;;;;;7.17;4.80;;;3.10;99.90;;;;;;5131078;28;20188;-68
2022/02/03 08:32:29;;;;;;;8.27;5.80;;;3.30;99.90;;;;;;5130849;27;20203;-68
2022/02/03 08:35:10;;;;;;;7.20;5.37;;;3.50;99.90;;;;;;5134653;27;20215;-68
2022/02/03 08:37:46;;;;;;;6.80;5.03;;;3.70;99.90;;;;;;5134696;27;20248;-69
2022/02/03 08:40:23;;;;;;;10.80;5.20;;;4.10;99.90;;;;;;5126700;27;20223;-70
2022/02/03 08:42:50;;;;;;;7.87;5.63;;;4.40;99.90;;;;;;5137433;27;20234;-70
2022/02/03 08:45:18;;;;;;;6.63;4.13;;;4.60;99.90;;;;;;5138371;27;20276;-69
2022/02/03 08:47:46;;;;;;;7.20;4.80;;;4.70;99.90;;;;;;5144987;27;20619;-70
2022/02/03 08:50:13;;;;;;;7.97;5.30;;;4.70;99.90;;;;;;5137087;27;20913;-69
2022/02/03 08:52:50;;;;;;;7.07;5.47;;;4.60;99.90;;;;;;5138227;27;20211;-69
2022/02/03 08:55:25;;;;;;;7.17;5.47;;;4.60;99.90;;;;;;5137683;27;20230;-70
2022/02/03 08:58:29;;;;;;;7.60;5.33;;;4.60;99.90;;;;;;5130465;27;20710;-68
2022/02/03 09:34:45;;;;;;;9.03;3.90;;;3.90;99.90;;;;;;5143746;27;20325;-71
2022/02/03 09:37:46;;;;;;;7.70;4.50;;;3.90;99.90;;;;;;5137800;27;20203;-71
2022/02/03 09:57:20;;;;;;;7.67;3.73;;;3.70;99.90;;;;;;5134352;27;20219;-69
2022/02/03 09:59:57;;;;;;;5.97;3.43;;;3.60;99.90;;;;;;5130988;27;20222;-70
2022/02/03 10:02:24;;;;;;;4.20;3.03;;;3.60;99.90;;;;;;5136995;27;20234;-69
2022/02/03 10:04:54;;;;;;;4.77;2.90;;;3.60;99.90;;;;;;5143808;27;20659;-71
2022/02/03 10:07:25;;;;;;;7.57;4.37;;;3.60;99.90;;;;;;5137766;27;20669;-70
2022/02/03 10:09:54;;;;;;;4.77;3.40;;;3.60;99.90;;;;;;5132160;27;20191;-70
2022/02/03 10:12:32;;;;;;;4.33;2.53;;;3.70;99.90;;;;;;5126695;27;20653;-69
2022/02/03 10:15:01;;;;;;;4.60;2.70;;;3.80;99.90;;;;;;5135212;27;20214;-69
2022/02/03 10:17:36;;;;;;;3.50;2.77;;;3.80;99.90;;;;;;5126660;27;20215;-70
2022/02/03 10:20:07;;;;;;;4.43;3.23;;;3.90;99.90;;;;;;5144542;27;20314;-69
2022/02/03 10:22:45;;;;;;;6.50;3.73;;;3.90;99.90;;;;;;5133127;27;20208;-70
2022/02/03 10:25:14;;;;;;;5.27;2.70;;;3.80;99.90;;;;;;5129128;27;20203;-69
2022/02/03 10:27:46;;;;;;;4.77;3.33;;;3.80;99.90;;;;;;5133087;27;20716;-68
2022/02/03 10:30:23;;;;;;;4.77;2.47;;;3.80;99.90;;;;;;5135170;27;20191;-70
2022/02/03 10:32:53;;;;;;;7.43;3.23;;;3.70;99.90;;;;;;5131938;27;20234;-69
2022/02/03 10:35:26;;;;;;;4.93;3.30;;;3.70;99.90;;;;;;5129075;27;20195;-69
2022/02/03 10:38:33;;;;;;;9.70;2.70;;;3.70;99.90;;;;;;5139880;27;20202;-68
2022/02/03 10:41:20;;;;;;;4.90;3.30;;;3.80;99.90;;;;;;5138937;27;20226;-69
2022/02/03 10:47:03;;;;;;;5.10;2.97;;;3.90;99.90;;;;;;5126430;27;20202;-69
2022/02/03 10:52:52;;;;;;;4.60;2.90;;;3.90;99.90;;;;;;5127541;27;20267;-69
2022/02/03 10:58:25;;;;;;;4.80;2.90;;;4.20;99.90;;;;;;5093621;27;20555;-69
2022/02/03 11:03:58;;;;;;;4.83;2.77;;;4.70;99.90;;;;;;5135049;27;20738;-69
2022/02/03 11:06:31;;;;;;;4.90;2.47;;;4.90;99.90;;;;;;5125359;27;20323;-70
2022/02/03 11:09:10;;;;;;;3.83;2.90;;;5.20;99.90;;;;;;5144437;27;20241;-69
2022/02/03 11:11:43;;;;;;;4.50;3.10;;;5.40;99.90;;;;;;5131485;27;20195;-69
2022/02/03 11:14:11;;;;;;;5.23;3.47;;;5.70;99.90;;;;;;5145019;27;20209;-69
2022/02/03 11:16:40;;;;;;;5.17;3.43;;;6.00;99.90;;;;;;5127971;27;20229;-69
2022/02/03 11:19:12;;;;;;;4.87;3.20;;;6.20;99.90;;;;;;5136182;27;20302;-67
2022/02/03 11:21:41;;;;;;;6.03;3.00;;;6.20;99.90;;;;;;5143977;27;20267;-69
2022/02/03 11:24:14;;;;;;;6.20;3.03;;;6.10;99.90;;;;;;5132910;27;20203;-69
2022/02/03 11:26:59;;;;;;;3.70;2.90;;;6.00;99.90;;;;;;5116616;28;20227;-71
2022/02/03 11:32:38;;;;;;;3.33;2.53;;;5.90;99.90;;;;;;5122892;28;20207;-69
2022/02/03 11:44:30;;;;;;;3.97;2.97;;;6.70;99.90;;;;;;5112119;27;20207;-70
2022/02/03 11:47:30;;;;;;;4.67;3.07;;;6.60;99.90;;;;;;5131822;27;20304;-70
2022/02/03 11:53:06;;;;;;;7.27;3.53;;;6.10;99.90;;;;;;5133198;27;20199;-69
2022/02/03 12:04:06;;;;;;;8.63;3.83;;;5.40;99.90;;;;;;5129663;27;20239;-69
2022/02/03 12:15:33;;;;;;;6.53;3.77;;;4.90;99.90;;;;;;5126570;27;20706;-68
2022/02/03 12:18:07;;;;;;;6.83;3.40;;;4.90;99.90;;;;;;5121064;27;20206;-69
2022/02/03 12:20:44;;;;;;;5.87;3.83;;;4.80;99.90;;;;;;5132047;27;20613;-67
2022/02/03 12:23:52;;;;;;;7.73;3.67;;;4.80;99.90;;;;;;5129001;27;20203;-68
2022/02/03 12:26:27;;;;;;;5.70;4.00;;;4.70;99.90;;;;;;5122162;27;20222;-69
2022/02/03 12:28:57;;;;;;;6.93;3.80;;;4.60;99.90;;;;;;5130597;27;20199;-69
2022/02/03 12:31:52;;;;;;;6.50;3.73;;;4.60;99.90;;;;;;5134912;27;20207;-70
2022/02/03 12:37:16;;;;;;;11.53;5.50;;;4.50;99.90;;;;;;5132779;27;20197;-69
2022/02/03 12:39:54;;;;;;;8.27;4.30;;;4.50;99.90;;;;;;5128472;27;20195;-69
2022/02/03 12:42:47;;;;;;;6.67;4.10;;;4.50;99.90;;;;;;5133689;27;20544;-68
2022/02/03 12:45:22;;;;;;;7.63;4.50;;;4.40;99.90;;;;;;5140535;27;20243;-69
2022/02/03 12:47:51;;;;;;;6.50;3.77;;;4.40;99.90;;;;;;5129175;27;20202;-68
2022/02/03 12:50:24;;;;;;;10.63;4.37;;;4.40;99.90;;;;;;5129283;27;20196;-68
2022/02/03 12:52:51;;;;;;;7.50;4.33;;;4.30;99.90;;;;;;5133517;27;20205;-69
2022/02/03 12:55:30;;;;;;;6.73;4.13;;;4.30;99.90;;;;;;5137891;27;20656;-68
2022/02/03 12:58:00;;;;;;;9.70;4.87;;;4.30;99.90;;;;;;5134644;27;20228;-68
2022/02/03 13:00:34;;;;;;;10.47;5.23;;;4.30;99.90;;;;;;5137920;27;20692;-68
2022/02/03 13:03:03;;;;;;;12.50;5.80;;;4.30;99.90;;;;;;5129443;27;20557;-67
2022/02/03 13:05:34;;;;;;;15.27;8.20;;;4.30;99.90;;;;;;5133711;27;20649;-68
2022/02/03 13:08:05;;;;;;;7.83;5.40;;;4.30;99.90;;;;;;5135701;27;20245;-68
2022/02/03 13:10:35;;;;;;;8.97;5.07;;;4.20;99.90;;;;;;5125024;27;20203;-68
2022/02/03 13:13:17;;;;;;;11.80;5.90;;;4.20;99.90;;;;;;5132938;27;20328;-68
2022/02/03 13:15:45;;;;;;;13.37;6.90;;;4.20;99.90;;;;;;5127935;27;20259;-69
2022/02/03 13:18:17;;;;;;;11.30;5.97;;;4.30;99.90;;;;;;5138866;27;20199;-68
2022/02/03 13:20:53;;;;;;;7.77;5.57;;;4.30;99.90;;;;;;5134614;27;20219;-69
2022/02/03 13:23:25;;;;;;;8.73;5.70;;;4.30;99.90;;;;;;5137958;27;20210;-68
2022/02/03 13:26:01;;;;;;;12.27;5.63;;;4.20;99.90;;;;;;5127559;27;20626;-68
2022/02/03 13:34:06;;;;;;;9.93;5.93;;;4.10;99.90;;;;;;5127765;27;20203;-68
2022/02/03 13:36:42;;;;;;;11.30;6.80;;;4.10;99.90;;;;;;5131673;27;20195;-68
2022/02/03 13:39:12;;;;;;;13.90;7.07;;;4.10;99.90;;;;;;5127754;27;20194;-68
2022/02/03 13:41:43;;;;;;;13.73;7.60;;;4.00;99.90;;;;;;5130873;27;20236;-68
2022/02/03 13:44:12;;;;;;;10.40;7.67;;;4.00;99.90;;;;;;5130122;27;20220;-68
2022/02/03 13:46:42;;;;;;;14.33;8.13;;;3.90;99.90;;;;;;5131054;27;20242;-67
2022/02/03 13:49:16;;;;;;;13.33;8.13;;;3.90;99.90;;;;;;5128738;27;20725;-68
2022/02/03 13:51:47;;;;;;;17.00;9.13;;;3.90;99.90;;;;;;5119632;27;20195;-68
2022/02/03 13:54:52;;;;;;;16.60;8.57;;;3.80;99.90;;;;;;5136827;27;20718;-69
2022/02/03 14:23:11;;;;;;;13.70;7.87;;;3.70;99.90;;;;;;5123998;27;20683;-68
2022/02/03 14:28:24;;;;;;;13.53;7.70;;;3.60;99.90;;;;;;5121632;27;20206;-69
2022/02/03 14:30:54;;;;;;;14.37;8.20;;;3.60;99.90;;;;;;5137650;27;20219;-69
2022/02/03 14:33:28;;;;;;;12.27;7.57;;;3.60;99.90;;;;;;5123554;27;20195;-68
2022/02/03 14:35:59;;;;;;;14.97;8.23;;;3.60;99.90;;;;;;5130288;27;20256;-68
2022/02/03 14:38:31;;;;;;;13.43;8.50;;;3.50;99.90;;;;;;5131420;27;20705;-68
2022/02/03 14:41:08;;;;;;;13.77;8.77;;;3.50;99.90;;;;;;5130716;27;20307;-69
2022/02/03 14:43:35;;;;;;;14.33;7.60;;;3.50;99.90;;;;;;5135383;27;20201;-69
2022/02/03 14:46:05;;;;;;;13.07;7.10;;;3.50;99.90;;;;;;5133409;27;20231;-67
2022/02/03 14:48:32;;;;;;;14.33;7.53;;;3.50;99.90;;;;;;5138871;27;20214;-68
2022/02/03 14:51:00;;;;;;;11.73;7.50;;;3.50;99.90;;;;;;5120455;27;20200;-69
2022/02/03 14:53:36;;;;;;;17.83;8.03;;;3.40;99.90;;;;;;5129598;27;20204;-69
2022/02/03 14:58:48;;;;;;;17.33;8.67;;;3.40;99.90;;;;;;5106414;27;20214;-68
2022/02/03 15:01:16;;;;;;;14.47;8.73;;;3.40;99.90;;;;;;5134807;27;20702;-68
2022/02/03 15:03:43;;;;;;;16.70;8.47;;;3.40;99.90;;;;;;5132451;27;20203;-68
2022/02/03 15:06:12;;;;;;;15.37;9.13;;;3.30;99.90;;;;;;5125832;27;20208;-69
2022/02/03 15:08:56;;;;;;;14.17;8.87;;;3.30;99.90;;;;;;5137626;27;20271;-68
2022/02/03 15:11:39;;;;;;;14.53;8.67;;;3.30;99.90;;;;;;5128024;27;20199;-69
2022/02/03 15:14:06;;;;;;;12.00;8.37;;;3.30;99.90;;;;;;5130235;27;20203;-68
2022/02/03 15:16:33;;;;;;;18.80;9.63;;;3.30;99.90;;;;;;5126724;27;20672;-69
2022/02/03 15:19:00;;;;;;;17.23;9.17;;;3.30;99.90;;;;;;5138466;27;20250;-69
2022/02/03 15:21:27;;;;;;;18.33;9.37;;;3.30;99.90;;;;;;5130701;27;20218;-68
2022/02/03 15:23:54;;;;;;;15.97;9.60;;;3.30;99.90;;;;;;5124001;27;20203;-68
2022/02/03 15:26:22;;;;;;;16.37;8.77;;;3.30;99.90;;;;;;5120832;28;20290;-68
2022/02/03 15:28:53;;;;;;;16.63;8.97;;;3.30;99.90;;;;;;5136110;27;20195;-69
2022/02/03 15:31:22;;;;;;;13.83;8.87;;;3.40;99.90;;;;;;5130101;27;20286;-69
2022/02/03 15:33:56;;;;;;;13.33;8.33;;;3.30;99.90;;;;;;5115302;28;20215;-67
2022/02/03 15:36:23;;;;;;;17.70;8.60;;;3.40;99.90;;;;;;5119573;27;20680;-69
2022/02/03 15:38:50;;;;;;;12.63;8.67;;;3.30;99.90;;;;;;5123111;28;20522;-68
2022/02/03 15:41:24;;;;;;;16.63;9.10;;;3.30;99.90;;;;;;5131148;27;20277;-69
2022/02/03 15:43:55;;;;;;;15.07;8.80;;;3.30;99.90;;;;;;5133062;27;20230;-68
2022/02/03 15:46:23;;;;;;;17.07;9.50;;;3.30;99.90;;;;;;5124245;28;20210;-67
2022/02/03 15:48:57;;;;;;;18.43;10.23;;;3.20;99.90;;;;;;5138461;27;20206;-67
2022/02/03 15:56:15;;;;;;;18.50;10.03;;;3.20;99.90;;;;;;5127860;27;20191;-68
2022/02/03 15:57:16;;;;;;;20.57;10.50;;;3.20;99.90;;;;;;5135614;27;20217;-70
2022/02/03 16:02:55;;;;;;;18.30;11.10;;;3.10;99.90;;;;;;5125806;27;20207;-70
2022/02/03 16:14:08;;;;;;;17.97;10.07;;;3.20;99.90;;;;;;5127437;27;20234;-71
2022/02/03 16:19:12;;;;;;;16.40;10.50;;;3.20;99.90;;;;;;5132166;27;20211;-70
2022/02/03 16:21:44;;;;;;;20.47;11.00;;;3.10;99.90;;;;;;5134493;27;20255;-68
2022/02/03 16:24:22;;;;;;;20.13;11.63;;;3.20;99.90;;;;;;5128284;27;20203;-68
2022/02/03 16:41:10;;;;;;;19.13;11.60;;;3.20;99.90;;;;;;5132973;27;20202;-69
2022/02/03 16:50:21;;;;;;;19.20;10.77;;;3.20;99.90;;;;;;5136983;27;20628;-70
2022/02/03 16:54:58;;;;;;;17.67;10.57;;;3.30;99.90;;;;;;5133239;27;20723;-69
2022/02/03 16:57:26;;;;;;;21.20;12.33;;;3.30;99.90;;;;;;5142043;27;20259;-69
2022/02/03 16:59:57;;;;;;;21.77;12.03;;;3.30;99.90;;;;;;5125731;27;20208;-69
2022/02/03 17:02:25;;;;;;;20.00;11.30;;;3.30;99.90;;;;;;5129164;27;20207;-70
2022/02/03 17:04:56;;;;;;;20.87;12.07;;;3.30;99.90;;;;;;5125521;27;20641;-69
2022/02/03 17:07:23;;;;;;;20.07;11.43;;;3.30;99.90;;;;;;5119854;27;20249;-69
2022/02/03 17:09:50;;;;;;;19.83;12.23;;;3.30;99.90;;;;;;5133989;27;20268;-69
2022/02/03 17:12:17;;;;;;;24.00;12.97;;;3.30;99.90;;;;;;5129510;27;20203;-69
2022/02/03 17:14:44;;;;;;;24.83;13.13;;;3.40;99.90;;;;;;5123038;27;20215;-69
2022/02/03 17:17:11;;;;;;;23.63;12.50;;;3.40;99.90;;;;;;5140277;27;20720;-70
2022/02/03 17:19:39;;;;;;;22.40;13.37;;;3.40;99.90;;;;;;5146853;27;20211;-70
2022/02/03 17:22:09;;;;;;;24.40;12.60;;;3.40;99.90;;;;;;5136720;27;20215;-70
2022/02/03 17:24:41;;;;;;;21.37;12.37;;;3.30;99.90;;;;;;5124636;27;20208;-69
2022/02/03 17:27:14;;;;;;;19.80;12.53;;;3.40;99.90;;;;;;5134721;27;20203;-69
2022/02/03 17:29:51;;;;;;;25.03;12.20;;;3.40;99.90;;;;;;5119588;27;20214;-70
2022/02/03 17:44:50;;;;;;;23.50;12.57;;;3.40;99.90;;;;;;5136626;27;20548;-70
2022/02/03 18:08:44;;;;;;;20.77;11.27;;;3.50;99.90;;;;;;5096861;28;20239;-71
2022/02/03 18:11:30;;;;;;;18.83;11.20;;;3.50;99.90;;;;;;5099083;28;20201;-69
2022/02/03 18:30:50;;;;;;;22.17;11.67;;;3.40;99.90;;;;;;5135339;27;20201;-71
2022/02/03 18:36:16;;;;;;;23.10;11.00;;;3.40;99.90;;;;;;5126490;27;20645;-70
2022/02/03 18:50:02;;;;;;;18.47;10.40;;;3.50;99.90;;;;;;5106682;27;20489;-70
2022/02/03 18:52:39;;;;;;;21.57;11.37;;;3.50;99.90;;;;;;5131067;27;20194;-69
2022/02/03 18:55:16;;;;;;;19.13;10.63;;;3.40;99.90;;;;;;5132515;27;20595;-74
2022/02/03 18:57:51;;;;;;;22.50;11.00;;;3.40;99.90;;;;;;5133681;27;20230;-71
2022/02/03 19:09:24;;;;;;;21.77;10.83;;;3.40;99.90;;;;;;5134118;27;20232;-71
2022/02/03 20:04:32;;;;;;;23.60;11.43;;;3.40;99.90;;;;;;5102734;28;20215;-71
2022/02/03 20:07:13;;;;;;;21.33;11.23;;;3.40;99.90;;;;;;5125702;28;20231;-73
2022/02/03 20:12:38;;;;;;;21.27;10.77;;;3.30;99.90;;;;;;5062904;28;20190;-72
2022/02/03 20:15:09;;;;;;;21.13;11.23;;;3.40;99.90;;;;;;5056413;28;20571;-72
2022/02/03 20:17:36;;;;;;;24.40;11.67;;;3.40;99.90;;;;;;5080232;27;20204;-71
2022/02/03 20:20:03;;;;;;;22.80;11.20;;;3.40;99.90;;;;;;5128049;28;20238;-72
2022/02/03 20:22:37;;;;;;;23.20;12.10;;;3.30;99.90;;;;;;5129338;28;20211;-72
2022/02/03 20:25:04;;;;;;;20.37;11.03;;;3.30;99.90;;;;;;5126820;27;20227;-70
2022/02/03 20:27:34;;;;;;;21.30;11.50;;;3.30;99.90;;;;;;5128104;27;20290;-72
2022/02/03 20:30:02;;;;;;;24.57;11.90;;;3.30;99.90;;;;;;5125873;27;20266;-72
2022/02/03 20:32:29;;;;;;;27.77;12.50;;;3.30;99.90;;;;;;5122912;27;20673;-69
2022/02/03 20:34:56;;;;;;;24.87;12.27;;;3.20;99.90;;;;;;5130832;27;20212;-69
2022/02/03 20:37:23;;;;;;;24.60;12.83;;;3.20;99.90;;;;;;5133220;27;20210;-69
2022/02/03 20:39:52;;;;;;;21.97;11.90;;;3.20;99.90;;;;;;5135783;27;20203;-69
2022/02/03 20:42:19;;;;;;;28.30;12.80;;;3.20;99.90;;;;;;5135656;27;20276;-70
2022/02/03 20:44:46;;;;;;;24.83;12.63;;;3.20;99.90;;;;;;5135324;27;20276;-70
2022/02/03 20:47:13;;;;;;;27.87;12.97;;;3.20;99.90;;;;;;5135930;27;20217;-70
2022/02/03 20:49:41;;;;;;;22.57;13.03;;;3.20;99.90;;;;;;5136141;27;20211;-71
2022/02/03 20:52:08;;;;;;;23.47;13.10;;;3.20;99.90;;;;;;5136785;27;20652;-72
2022/02/03 20:54:35;;;;;;;26.20;13.47;;;3.20;99.90;;;;;;5137051;27;20231;-71
2022/02/03 20:57:04;;;;;;;27.30;12.47;;;3.20;99.90;;;;;;5133040;27;20310;-71
2022/02/03 20:59:51;;;;;;;23.13;13.10;;;3.20;99.90;;;;;;5128443;27;20238;-70
2022/02/03 21:02:27;;;;;;;24.43;12.07;;;3.20;99.90;;;;;;5138271;27;20218;-70
2022/02/03 21:05:00;;;;;;;27.10;14.30;;;3.20;99.90;;;;;;5128442;27;20206;-70
2022/02/03 21:07:27;;;;;;;25.53;12.83;;;3.20;99.90;;;;;;5123106;27;20764;-69
2022/02/03 21:09:54;;;;;;;26.40;11.83;;;3.20;99.90;;;;;;5135033;27;20797;-70
2022/02/03 21:12:23;;;;;;;25.07;13.33;;;3.20;99.90;;;;;;5131808;27;20325;-70
2022/02/03 21:14:54;;;;;;;26.90;13.30;;;3.20;99.90;;;;;;5145040;27;20199;-70
2022/02/03 21:17:22;;;;;;;25.20;13.20;;;3.20;99.90;;;;;;5139120;27;20210;-71
2022/02/03 21:19:49;;;;;;;25.97;13.97;;;3.20;99.90;;;;;;5128920;27;20267;-73
2022/02/03 21:22:16;;;;;;;27.93;13.43;;;3.20;99.90;;;;;;5138957;27;20219;-73
2022/02/03 21:24:46;;;;;;;24.17;12.90;;;3.20;99.90;;;;;;5133882;27;20274;-73
2022/02/03 21:27:18;;;;;;;24.00;12.87;;;3.10;99.90;;;;;;5126111;27;20204;-73
2022/02/03 21:29:47;;;;;;;24.03;13.60;;;3.10;99.90;;;;;;5130789;27;20223;-73
2022/02/03 21:32:14;;;;;;;26.07;13.60;;;3.10;99.90;;;;;;5133861;27;20240;-74
2022/02/03 21:34:41;;;;;;;25.43;12.13;;;3.00;99.90;;;;;;5124216;27;20731;-74
2022/02/03 21:37:08;;;;;;;23.67;13.03;;;3.00;99.90;;;;;;5131214;27;20239;-73
2022/02/03 21:39:35;;;;;;;23.93;12.60;;;3.00;99.90;;;;;;5138913;27;20730;-74